Time;durP1;ratioP1;P1;durP2;ratioP2;P2;SDS_P1;SDS_P2;PMS_P1;PMS_P2;Temp;Humidity;BMP_temperature;BMP_pressure;BME280_temperature;BME280_humidity;BME280_pressure;Samples;Min_cycle;Max_cycle;Signal;HPM_P1;HPM_P2
2022/10/19 00:01:21;;;;;;;4.30;1.40;;;14.00;99.90;;;;;;5013121;28;20586;-84
2022/10/19 00:03:52;;;;;;;3.53;1.87;;;14.00;99.90;;;;;;5014089;28;20479;-84
2022/10/19 00:06:24;;;;;;;2.67;1.00;;;14.00;99.90;;;;;;5014108;28;20433;-84
2022/10/19 00:08:52;;;;;;;3.13;1.07;;;14.00;99.90;;;;;;5014564;28;20457;-84
2022/10/19 00:11:19;;;;;;;2.40;1.03;;;13.90;99.90;;;;;;5013594;28;20476;-84
2022/10/19 00:13:48;;;;;;;6.17;1.53;;;13.90;99.90;;;;;;5013935;28;20451;-84
2022/10/19 00:16:16;;;;;;;2.20;1.00;;;13.90;99.90;;;;;;5014041;28;20436;-84
2022/10/19 00:18:43;;;;;;;3.50;1.30;;;13.90;99.90;;;;;;5013959;28;20448;-84
2022/10/19 00:21:13;;;;;;;4.97;1.73;;;13.80;99.90;;;;;;5013671;28;20467;-84
2022/10/19 00:23:40;;;;;;;3.37;0.93;;;13.80;99.90;;;;;;5013428;28;20488;-84
2022/10/19 00:26:07;;;;;;;1.40;1.30;;;13.70;99.90;;;;;;5013719;28;20452;-84
2022/10/19 00:28:34;;;;;;;5.37;1.50;;;13.70;99.90;;;;;;5013424;28;20951;-84
2022/10/19 00:31:04;;;;;;;2.60;1.67;;;13.70;99.90;;;;;;5013481;28;20967;-83
2022/10/19 00:33:31;;;;;;;5.50;1.77;;;13.70;99.90;;;;;;5013506;28;20417;-84
2022/10/19 00:35:58;;;;;;;2.20;1.20;;;13.70;99.90;;;;;;5013359;28;20842;-84
2022/10/19 00:38:25;;;;;;;1.67;1.00;;;13.70;99.90;;;;;;5013632;28;20455;-83
2022/10/19 00:40:52;;;;;;;2.97;1.50;;;13.70;99.90;;;;;;5013284;28;20456;-84
2022/10/19 00:43:20;;;;;;;2.50;1.30;;;13.70;99.90;;;;;;5013553;28;20491;-84
2022/10/19 00:45:48;;;;;;;1.73;1.33;;;13.70;99.90;;;;;;5013578;28;20947;-84
2022/10/19 00:48:21;;;;;;;2.37;1.30;;;13.70;99.90;;;;;;5013546;28;20453;-84
2022/10/19 00:50:49;;;;;;;4.00;1.47;;;13.70;99.90;;;;;;5016692;28;20494;-83
2022/10/19 00:53:16;;;;;;;6.27;2.00;;;13.70;99.90;;;;;;5017321;28;20444;-84
2022/10/19 00:55:44;;;;;;;2.50;1.03;;;13.70;99.90;;;;;;5017804;28;20455;-84
2022/10/19 00:58:10;;;;;;;2.33;1.10;;;13.70;99.90;;;;;;5017139;28;20947;-84
2022/10/19 01:00:38;;;;;;;3.30;1.60;;;13.70;99.90;;;;;;5017401;28;20491;-84
2022/10/19 01:03:05;;;;;;;9.43;3.07;;;13.70;99.90;;;;;;5016937;28;20481;-84
2022/10/19 01:05:35;;;;;;;3.33;1.00;;;13.70;99.90;;;;;;5017162;28;20947;-84
2022/10/19 01:08:02;;;;;;;1.70;1.03;;;13.60;99.90;;;;;;4999809;28;20456;-84
2022/10/19 01:10:39;;;;;;;2.70;1.40;;;13.60;99.90;;;;;;5016966;28;20823;-84
2022/10/19 01:13:19;;;;;;;2.50;1.00;;;13.50;99.90;;;;;;5017013;28;20428;-84
2022/10/19 01:15:55;;;;;;;1.47;1.03;;;13.50;99.90;;;;;;5017242;28;20439;-84
2022/10/19 01:18:28;;;;;;;6.03;1.60;;;13.40;99.90;;;;;;5016866;28;20439;-84
2022/10/19 01:21:22;;;;;;;3.07;1.83;;;13.40;99.90;;;;;;5016686;28;20850;-85
2022/10/19 01:24:08;;;;;;;2.30;0.80;;;13.40;99.90;;;;;;5016993;28;20879;-83
2022/10/19 01:27:08;;;;;;;2.30;1.37;;;13.30;99.90;;;;;;5017090;28;20443;-84
2022/10/19 01:30:01;;;;;;;5.23;1.73;;;13.40;99.90;;;;;;5001848;28;20977;-84
2022/10/19 01:32:37;;;;;;;2.40;0.90;;;13.30;99.90;;;;;;5016706;28;20424;-84
2022/10/19 01:35:09;;;;;;;4.50;1.80;;;13.40;99.90;;;;;;5017309;28;20440;-83
2022/10/19 01:37:43;;;;;;;3.07;1.40;;;13.40;99.90;;;;;;5016830;28;20433;-84
2022/10/19 01:40:15;;;;;;;4.33;1.27;;;13.40;99.90;;;;;;5016732;28;20470;-84
2022/10/19 01:42:46;;;;;;;2.80;1.40;;;13.30;99.90;;;;;;5016653;28;20482;-84
2022/10/19 01:45:19;;;;;;;8.33;1.20;;;13.40;99.90;;;;;;5016294;28;20472;-84
2022/10/19 01:47:53;;;;;;;1.40;1.03;;;13.30;99.90;;;;;;5016650;28;20440;-84
2022/10/19 01:50:26;;;;;;;4.23;1.00;;;13.30;99.90;;;;;;5016499;28;20472;-84
2022/10/19 01:52:55;;;;;;;1.77;1.67;;;13.40;99.90;;;;;;5016299;28;20782;-84
2022/10/19 01:55:24;;;;;;;4.40;1.90;;;13.40;99.90;;;;;;5016237;28;20444;-84
2022/10/19 01:57:56;;;;;;;4.57;1.20;;;13.40;99.90;;;;;;5016368;28;20456;-84
2022/10/19 02:00:27;;;;;;;9.83;2.00;;;13.40;99.90;;;;;;5016334;28;20483;-84
2022/10/19 02:02:55;;;;;;;1.87;1.23;;;13.40;99.90;;;;;;5015976;28;20479;-84
2022/10/19 02:05:30;;;;;;;2.17;1.50;;;13.40;99.90;;;;;;5016107;28;20480;-84
2022/10/19 02:08:00;;;;;;;3.67;1.00;;;13.40;99.90;;;;;;5015963;28;20926;-84
2022/10/19 02:10:29;;;;;;;0.53;0.50;;;13.40;99.90;;;;;;5016173;28;20482;-84
2022/10/19 02:12:58;;;;;;;3.73;1.50;;;13.40;99.90;;;;;;5015952;28;20441;-84
2022/10/19 02:15:28;;;;;;;2.40;1.50;;;13.30;99.90;;;;;;5016036;28;20452;-85
2022/10/19 02:17:58;;;;;;;1.63;0.90;;;13.30;99.90;;;;;;5016120;28;20452;-85
2022/10/19 02:20:26;;;;;;;3.53;1.80;;;13.30;99.90;;;;;;5015944;28;20479;-85
2022/10/19 02:22:53;;;;;;;2.60;0.93;;;13.30;99.90;;;;;;5015674;28;20446;-84
2022/10/19 02:25:21;;;;;;;2.60;0.73;;;13.30;99.90;;;;;;5015594;28;20476;-85
2022/10/19 02:27:48;;;;;;;7.20;1.40;;;13.30;99.90;;;;;;5015927;28;20456;-86
2022/10/19 02:30:20;;;;;;;4.47;1.20;;;13.30;99.90;;;;;;5015694;28;20461;-84
2022/10/19 02:32:49;;;;;;;4.03;1.10;;;13.30;99.90;;;;;;5015849;28;20847;-85
2022/10/19 02:35:16;;;;;;;1.47;1.37;;;13.30;99.90;;;;;;5015735;28;20455;-85
2022/10/19 02:37:43;;;;;;;3.33;0.90;;;13.30;99.90;;;;;;5015398;28;20936;-84
2022/10/19 02:40:11;;;;;;;2.30;1.33;;;13.40;99.90;;;;;;5015563;28;20464;-85
2022/10/19 02:42:42;;;;;;;1.13;1.00;;;13.50;99.90;;;;;;5015577;28;20524;-85
2022/10/19 02:45:15;;;;;;;1.00;0.50;;;13.40;99.90;;;;;;5015528;28;20469;-85
2022/10/19 02:47:45;;;;;;;0.97;0.93;;;13.50;99.90;;;;;;5015501;28;20519;-85
2022/10/19 02:50:13;;;;;;;3.13;1.13;;;13.50;99.90;;;;;;5016086;28;20485;-85
2022/10/19 02:52:41;;;;;;;2.33;0.70;;;13.50;99.90;;;;;;5016122;28;20809;-85
2022/10/19 02:55:08;;;;;;;1.80;1.00;;;13.60;99.90;;;;;;5015359;28;20448;-85
2022/10/19 02:57:35;;;;;;;4.97;1.43;;;13.60;99.90;;;;;;5015266;28;20464;-84
2022/10/19 03:00:04;;;;;;;1.70;0.70;;;13.70;99.90;;;;;;5014892;28;20476;-84
2022/10/19 03:02:31;;;;;;;2.37;1.00;;;13.70;99.90;;;;;;5014794;28;20464;-85
2022/10/19 03:04:57;;;;;;;1.63;0.87;;;13.80;99.90;;;;;;5014790;28;20495;-84
2022/10/19 03:07:25;;;;;;;2.50;0.70;;;13.80;99.90;;;;;;5015149;28;20444;-85
2022/10/19 03:09:53;;;;;;;3.93;1.13;;;13.80;99.90;;;;;;5016004;28;20468;-91
2022/10/19 03:12:19;;;;;;;1.60;0.60;;;13.90;99.90;;;;;;5015957;28;20447;-90
2022/10/19 03:14:46;;;;;;;3.40;1.13;;;13.90;99.90;;;;;;5016563;28;20444;-91
2022/10/19 03:17:13;;;;;;;1.67;0.60;;;13.90;99.90;;;;;;5016221;28;20522;-91
2022/10/19 03:19:40;;;;;;;1.77;0.93;;;13.90;99.90;;;;;;5015906;28;20448;-91
2022/10/19 03:22:07;;;;;;;2.07;1.47;;;13.90;99.90;;;;;;5015627;28;20462;-90
2022/10/19 03:24:35;;;;;;;1.13;0.80;;;13.90;99.90;;;;;;5015735;28;20484;-91
2022/10/19 03:27:02;;;;;;;0.80;0.80;;;13.90;99.90;;;;;;5015726;28;20452;-91
2022/10/19 03:29:28;;;;;;;2.30;1.53;;;14.00;99.90;;;;;;5015714;28;20444;-91
2022/10/19 03:31:55;;;;;;;5.20;1.10;;;14.00;99.90;;;;;;5015836;28;20456;-91
2022/10/19 03:34:22;;;;;;;3.93;1.53;;;14.00;99.90;;;;;;5015841;28;20459;-90
2022/10/19 03:36:49;;;;;;;5.00;1.20;;;14.00;99.90;;;;;;5015470;28;20440;-91
2022/10/19 03:39:16;;;;;;;2.57;0.97;;;14.00;99.90;;;;;;5015629;28;20462;-91
2022/10/19 03:41:45;;;;;;;3.40;1.03;;;14.00;99.90;;;;;;5015888;28;20468;-91
2022/10/19 03:44:12;;;;;;;3.20;1.30;;;14.10;99.90;;;;;;5015667;28;20483;-91
2022/10/19 03:46:39;;;;;;;1.13;0.80;;;14.10;99.90;;;;;;5015268;28;20448;-91
2022/10/19 03:49:06;;;;;;;5.83;1.43;;;14.10;99.90;;;;;;5015575;28;20452;-90
2022/10/19 03:51:33;;;;;;;1.50;0.87;;;14.10;99.90;;;;;;5015723;28;20468;-91
2022/10/19 03:54:02;;;;;;;5.70;1.20;;;14.10;99.90;;;;;;5015492;28;20454;-91
2022/10/19 03:56:30;;;;;;;1.23;1.10;;;14.10;99.90;;;;;;5016258;28;20934;-91
2022/10/19 03:59:01;;;;;;;1.63;1.20;;;14.20;99.90;;;;;;5015180;28;20535;-90
2022/10/19 04:01:29;;;;;;;1.57;0.70;;;14.20;99.90;;;;;;5014928;28;20480;-91
2022/10/19 04:03:58;;;;;;;1.67;1.30;;;14.30;99.90;;;;;;5014975;28;20421;-91
2022/10/19 04:06:28;;;;;;;3.20;1.67;;;14.30;99.90;;;;;;5015160;28;20456;-90
2022/10/19 04:08:55;;;;;;;4.03;1.73;;;14.30;99.90;;;;;;5020800;28;20465;-90
2022/10/19 04:11:24;;;;;;;3.03;1.27;;;14.30;99.90;;;;;;5015146;28;20480;-90
2022/10/19 04:13:51;;;;;;;3.20;0.70;;;14.30;99.90;;;;;;5014828;28;20455;-90
2022/10/19 04:16:21;;;;;;;4.27;1.40;;;14.30;99.90;;;;;;5014846;28;20547;-90
2022/10/19 04:18:48;;;;;;;2.80;1.67;;;14.30;99.90;;;;;;5014983;28;20451;-90
2022/10/19 04:21:23;;;;;;;4.43;1.07;;;14.40;99.90;;;;;;5014872;28;20468;-90
2022/10/19 04:23:50;;;;;;;12.33;1.50;;;14.30;99.90;;;;;;5014159;28;20439;-91
2022/10/19 04:26:17;;;;;;;4.10;1.87;;;14.40;99.90;;;;;;5014682;28;20495;-90
2022/10/19 04:28:43;;;;;;;2.87;1.33;;;14.40;99.90;;;;;;5014765;28;20452;-90
2022/10/19 04:31:11;;;;;;;2.60;2.13;;;14.40;99.90;;;;;;5014268;28;20987;-90
2022/10/19 04:33:40;;;;;;;4.80;0.90;;;14.40;99.90;;;;;;5014569;28;20436;-91
2022/10/19 04:36:09;;;;;;;4.07;2.30;;;14.40;99.90;;;;;;5014678;28;20452;-90
2022/10/19 04:38:36;;;;;;;3.27;1.97;;;14.30;99.90;;;;;;5014485;28;20436;-90
2022/10/19 04:41:04;;;;;;;5.17;1.50;;;14.30;99.90;;;;;;5014612;28;20476;-90
2022/10/19 04:43:31;;;;;;;1.87;1.13;;;14.20;99.90;;;;;;5014479;28;20440;-90
2022/10/19 04:46:02;;;;;;;3.83;2.00;;;14.20;99.90;;;;;;5014278;28;20480;-90
2022/10/19 04:48:29;;;;;;;2.23;1.40;;;14.10;99.90;;;;;;5014410;28;20504;-90
2022/10/19 04:50:57;;;;;;;4.63;1.97;;;14.10;99.90;;;;;;5014545;28;20472;-90
2022/10/19 04:53:24;;;;;;;3.93;1.70;;;14.10;99.90;;;;;;5014173;28;20798;-90
2022/10/19 04:55:51;;;;;;;5.93;1.53;;;14.10;99.90;;;;;;5014507;28;20448;-89
2022/10/19 04:58:18;;;;;;;4.70;1.93;;;14.10;99.90;;;;;;5014299;28;20428;-90
2022/10/19 05:00:45;;;;;;;6.57;1.50;;;14.10;99.90;;;;;;5014462;28;20474;-90
2022/10/19 05:03:12;;;;;;;6.00;1.47;;;14.10;99.90;;;;;;5014394;28;20974;-90
2022/10/19 05:05:39;;;;;;;6.27;3.03;;;14.10;99.90;;;;;;5014252;28;20490;-90
2022/10/19 05:08:07;;;;;;;7.53;1.60;;;14.10;99.90;;;;;;5014182;28;20446;-89
2022/10/19 05:10:34;;;;;;;5.50;1.63;;;14.10;99.90;;;;;;5014140;28;20468;-90
2022/10/19 05:13:02;;;;;;;4.70;1.43;;;14.10;99.90;;;;;;5014471;28;20454;-90
2022/10/19 05:15:29;;;;;;;6.70;1.77;;;14.10;99.90;;;;;;5014092;28;20440;-90
2022/10/19 05:17:56;;;;;;;7.57;1.93;;;14.10;99.90;;;;;;5014319;28;20437;-89
2022/10/19 05:20:24;;;;;;;7.33;2.03;;;14.10;99.90;;;;;;5014205;28;20479;-90
2022/10/19 05:22:51;;;;;;;6.13;2.43;;;14.10;99.90;;;;;;5014373;28;20458;-90
2022/10/19 05:25:19;;;;;;;4.63;2.10;;;14.10;99.90;;;;;;5013876;28;20979;-89
2022/10/19 05:27:50;;;;;;;6.20;2.33;;;14.10;99.90;;;;;;5014306;28;20450;-90
2022/10/19 05:30:17;;;;;;;16.73;1.93;;;14.20;99.90;;;;;;5014140;28;20475;-90
2022/10/19 05:32:44;;;;;;;5.20;2.47;;;14.20;99.90;;;;;;5014425;28;20444;-90
2022/10/19 05:35:11;;;;;;;3.83;1.23;;;14.20;99.90;;;;;;5014723;28;20444;-89
2022/10/19 05:37:38;;;;;;;6.37;1.37;;;14.30;99.90;;;;;;5017635;28;20448;-90
2022/10/19 05:40:06;;;;;;;6.40;2.23;;;14.20;99.90;;;;;;5017651;28;20551;-90
2022/10/19 05:42:34;;;;;;;7.70;2.43;;;14.20;99.90;;;;;;5018362;28;20815;-90
2022/10/19 05:45:01;;;;;;;7.33;2.23;;;14.20;99.90;;;;;;5017525;28;20486;-90
2022/10/19 05:47:27;;;;;;;4.83;1.70;;;14.20;99.90;;;;;;5017525;28;20966;-89
2022/10/19 05:49:54;;;;;;;5.13;1.87;;;14.20;99.90;;;;;;5017279;28;20460;-89
2022/10/19 05:52:21;;;;;;;4.10;1.10;;;14.20;99.90;;;;;;5017518;28;20442;-89
2022/10/19 05:54:48;;;;;;;4.33;1.70;;;14.20;99.90;;;;;;5017611;28;20448;-89
2022/10/19 05:57:14;;;;;;;9.23;1.67;;;14.10;99.90;;;;;;5017387;28;20440;-89
2022/10/19 05:59:42;;;;;;;7.83;3.20;;;14.20;99.90;;;;;;5017349;28;20443;-89
2022/10/19 06:02:13;;;;;;;5.10;2.70;;;14.20;99.90;;;;;;5017124;28;20478;-90
2022/10/19 06:04:40;;;;;;;11.73;2.37;;;14.20;99.90;;;;;;5017344;28;20440;-89
2022/10/19 06:07:07;;;;;;;8.97;3.70;;;14.30;99.90;;;;;;5017023;28;20440;-90
2022/10/19 06:09:35;;;;;;;4.30;1.40;;;14.30;99.90;;;;;;5016977;28;20810;-90
2022/10/19 06:12:02;;;;;;;13.30;2.50;;;14.30;99.90;;;;;;5017501;28;20820;-89
2022/10/19 06:14:29;;;;;;;7.70;2.20;;;14.30;99.90;;;;;;5017338;28;20954;-89
2022/10/19 06:16:57;;;;;;;9.80;1.57;;;14.30;99.90;;;;;;5016921;28;20452;-89
2022/10/19 06:19:24;;;;;;;4.80;1.47;;;14.30;99.90;;;;;;5016557;28;20834;-89
2022/10/19 06:21:51;;;;;;;8.97;2.40;;;14.30;99.90;;;;;;5016342;28;20810;-89
2022/10/19 06:24:18;;;;;;;4.27;1.60;;;14.30;99.90;;;;;;5016439;28;20527;-88
2022/10/19 06:26:45;;;;;;;5.87;1.90;;;14.30;99.90;;;;;;5016241;28;20480;-89
2022/10/19 06:29:11;;;;;;;2.67;1.53;;;14.30;99.90;;;;;;5016894;28;20456;-88
2022/10/19 06:31:38;;;;;;;4.10;1.07;;;14.30;99.90;;;;;;5016452;28;20467;-89
2022/10/19 06:34:07;;;;;;;4.33;1.67;;;14.30;99.90;;;;;;5016689;28;20441;-89
2022/10/19 06:36:34;;;;;;;2.93;1.33;;;14.30;99.90;;;;;;5016271;28;20800;-88
2022/10/19 06:39:01;;;;;;;5.30;1.30;;;14.30;99.90;;;;;;5016371;28;20455;-88
2022/10/19 06:41:29;;;;;;;3.00;1.30;;;14.20;99.90;;;;;;5016150;28;20471;-89
2022/10/19 06:43:56;;;;;;;4.13;2.00;;;14.20;99.90;;;;;;5016425;28;20454;-86
2022/10/19 06:46:25;;;;;;;0.90;0.80;;;14.20;99.90;;;;;;5015702;28;20487;-88
2022/10/19 06:48:52;;;;;;;3.83;1.43;;;14.10;99.90;;;;;;5015298;28;20437;-88
2022/10/19 06:51:21;;;;;;;0.97;0.97;;;14.10;99.90;;;;;;5016047;28;20478;-89
2022/10/19 06:53:48;;;;;;;6.60;0.90;;;14.10;99.90;;;;;;5015756;28;20439;-87
2022/10/19 06:56:15;;;;;;;2.60;1.20;;;14.10;99.90;;;;;;5015536;28;20437;-88
2022/10/19 06:58:42;;;;;;;2.10;1.27;;;14.10;99.90;;;;;;5015392;28;20546;-88
2022/10/19 07:01:10;;;;;;;2.70;1.67;;;14.10;99.90;;;;;;5015602;28;20498;-87
2022/10/19 07:03:38;;;;;;;4.17;1.20;;;14.10;99.90;;;;;;5016009;28;20851;-88
2022/10/19 07:06:07;;;;;;;2.40;1.13;;;14.10;99.90;;;;;;5015876;28;20857;-89
2022/10/19 07:08:36;;;;;;;4.80;1.17;;;14.10;99.90;;;;;;5016483;28;20433;-88
2022/10/19 07:11:07;;;;;;;3.67;1.70;;;14.00;99.90;;;;;;5016746;28;20571;-88
2022/10/19 07:13:34;;;;;;;0.80;0.80;;;14.00;99.90;;;;;;5015582;28;20437;-89
2022/10/19 07:16:04;;;;;;;4.50;0.90;;;14.00;99.90;;;;;;5015811;28;20452;-88
2022/10/19 07:18:31;;;;;;;6.70;1.10;;;14.00;99.90;;;;;;5015943;28;20436;-88
2022/10/19 07:20:59;;;;;;;1.83;1.13;;;14.00;99.90;;;;;;5015696;28;20839;-88
2022/10/19 07:23:28;;;;;;;2.03;1.23;;;14.00;99.90;;;;;;5015821;28;20432;-88
2022/10/19 07:26:00;;;;;;;4.57;1.03;;;14.00;99.90;;;;;;5015837;28;20495;-88
2022/10/19 07:28:27;;;;;;;4.10;1.07;;;14.00;99.90;;;;;;5016383;28;20468;-91
2022/10/19 07:30:54;;;;;;;1.57;1.07;;;14.00;99.90;;;;;;5015606;28;20467;-88
2022/10/19 07:33:21;;;;;;;2.80;1.43;;;14.00;99.90;;;;;;5015743;28;20457;-88
2022/10/19 07:35:48;;;;;;;1.93;1.13;;;14.10;99.90;;;;;;5015826;28;20808;-89
2022/10/19 07:38:15;;;;;;;2.20;0.80;;;14.10;99.90;;;;;;5015712;28;20948;-89
2022/10/19 07:40:41;;;;;;;3.67;1.40;;;14.10;99.90;;;;;;5015631;28;20472;-88
2022/10/19 07:43:09;;;;;;;1.37;1.20;;;14.10;99.90;;;;;;5015477;28;20452;-88
2022/10/19 07:45:36;;;;;;;4.57;1.43;;;14.10;99.90;;;;;;5014747;28;20472;-88
2022/10/19 07:48:03;;;;;;;5.50;1.10;;;14.10;99.90;;;;;;5015029;28;20961;-86
2022/10/19 07:50:30;;;;;;;4.27;1.33;;;14.20;99.90;;;;;;5015217;28;20483;-88
2022/10/19 07:52:57;;;;;;;3.07;1.23;;;14.30;99.90;;;;;;5014896;28;20977;-88
2022/10/19 07:55:23;;;;;;;8.60;1.57;;;14.30;99.90;;;;;;5015209;28;20472;-88
2022/10/19 07:57:50;;;;;;;1.40;0.93;;;14.30;99.90;;;;;;5014729;28;20441;-88
2022/10/19 08:00:18;;;;;;;1.57;0.93;;;14.30;99.90;;;;;;5014652;28;20491;-86
2022/10/19 08:02:45;;;;;;;1.50;1.17;;;14.40;99.90;;;;;;5016198;28;20483;-88
2022/10/19 08:05:12;;;;;;;1.77;0.67;;;14.40;99.90;;;;;;5017464;28;20775;-90
2022/10/19 08:07:39;;;;;;;3.93;1.17;;;14.40;99.90;;;;;;5015911;28;20449;-88
2022/10/19 08:10:06;;;;;;;1.50;1.00;;;14.40;99.90;;;;;;5015137;28;20460;-88
2022/10/19 08:12:36;;;;;;;6.70;1.63;;;14.40;99.90;;;;;;5015778;28;20816;-88
2022/10/19 08:15:05;;;;;;;4.70;1.80;;;14.40;99.90;;;;;;5015510;28;20437;-88
2022/10/19 08:17:35;;;;;;;4.13;1.43;;;14.40;99.90;;;;;;5015395;28;20479;-88
2022/10/19 08:20:01;;;;;;;2.20;0.87;;;14.40;99.90;;;;;;5014836;28;20543;-88
2022/10/19 08:22:28;;;;;;;2.17;1.67;;;14.50;99.90;;;;;;5015342;28;20471;-91
2022/10/19 08:24:55;;;;;;;4.67;1.73;;;14.50;99.90;;;;;;5015011;28;20454;-88
2022/10/19 08:27:22;;;;;;;1.80;1.30;;;14.40;99.90;;;;;;5014653;28;20491;-87
2022/10/19 08:29:50;;;;;;;2.40;1.87;;;14.40;99.90;;;;;;5014395;28;20432;-88
2022/10/19 08:32:17;;;;;;;2.77;1.23;;;14.40;99.90;;;;;;5014176;28;20981;-87
2022/10/19 08:34:45;;;;;;;3.20;1.40;;;14.50;99.90;;;;;;5014593;28;20456;-88
2022/10/19 08:37:12;;;;;;;4.67;1.10;;;14.50;99.90;;;;;;5014558;28;20445;-87
2022/10/19 08:39:38;;;;;;;5.07;1.23;;;14.60;99.90;;;;;;5014335;28;20448;-88
2022/10/19 08:42:13;;;;;;;3.13;1.53;;;14.70;99.90;;;;;;5014147;28;20516;-87
2022/10/19 08:45:19;;;;;;;1.23;1.10;;;14.80;99.90;;;;;;5014495;28;20436;-88
2022/10/19 08:47:58;;;;;;;7.47;2.70;;;14.90;99.90;;;;;;5014482;28;20435;-87
2022/10/19 08:50:31;;;;;;;3.07;1.17;;;14.90;99.90;;;;;;5014050;28;20478;-87
2022/10/19 08:53:01;;;;;;;1.67;1.40;;;14.90;99.90;;;;;;5014194;28;20431;-88
2022/10/19 08:55:41;;;;;;;4.53;1.67;;;15.00;99.90;;;;;;5014199;28;20912;-87
2022/10/19 08:58:20;;;;;;;3.10;1.00;;;14.90;99.90;;;;;;5014175;28;20436;-88
2022/10/19 09:00:51;;;;;;;1.90;1.50;;;15.00;99.90;;;;;;5013829;28;20807;-86
2022/10/19 09:03:24;;;;;;;7.10;1.33;;;15.00;99.90;;;;;;5013963;28;20413;-88
2022/10/19 09:05:57;;;;;;;8.27;1.73;;;15.00;99.90;;;;;;5014679;28;20473;-88
2022/10/19 09:08:24;;;;;;;1.87;1.50;;;15.10;99.90;;;;;;5015061;28;20934;-89
2022/10/19 09:10:53;;;;;;;2.33;0.77;;;15.10;99.90;;;;;;5016168;28;20482;-89
2022/10/19 09:13:29;;;;;;;4.27;2.17;;;15.20;99.90;;;;;;5018566;28;20807;-89
2022/10/19 09:15:56;;;;;;;2.20;0.83;;;15.10;99.90;;;;;;5019179;28;20428;-92
2022/10/19 09:18:26;;;;;;;6.93;1.70;;;15.10;99.90;;;;;;5019492;28;20454;-88
2022/10/19 09:21:00;;;;;;;3.33;0.90;;;15.00;99.90;;;;;;5019117;28;20474;-88
2022/10/19 09:23:29;;;;;;;2.50;1.60;;;15.00;99.90;;;;;;5018927;28;20413;-84
2022/10/19 09:25:58;;;;;;;2.43;1.63;;;15.00;99.90;;;;;;5018050;28;20858;-87
2022/10/19 09:28:40;;;;;;;4.60;1.53;;;15.00;99.90;;;;;;5017673;28;20888;-87
2022/10/19 09:31:12;;;;;;;6.20;2.37;;;14.90;99.90;;;;;;5017877;28;20480;-87
2022/10/19 09:33:41;;;;;;;7.57;1.67;;;14.80;99.90;;;;;;5017686;28;20444;-83
2022/10/19 09:36:10;;;;;;;4.20;1.40;;;14.90;99.90;;;;;;5017783;28;20448;-88
2022/10/19 09:38:36;;;;;;;1.97;1.50;;;14.90;99.90;;;;;;5017408;28;20456;-88
2022/10/19 09:41:17;;;;;;;1.10;0.90;;;14.90;99.90;;;;;;5017292;28;20478;-86
2022/10/19 09:43:49;;;;;;;14.63;4.17;;;15.00;99.90;;;;;;5017624;28;20527;-88
2022/10/19 09:46:28;;;;;;;3.40;1.60;;;15.00;99.90;;;;;;5017136;28;21054;-87
2022/10/19 09:48:55;;;;;;;3.00;1.80;;;15.00;99.90;;;;;;5017898;28;20452;-89
2022/10/19 09:51:23;;;;;;;2.93;1.20;;;15.00;99.90;;;;;;5017879;28;20452;-88
2022/10/19 09:53:53;;;;;;;2.20;1.93;;;15.10;99.90;;;;;;5017866;28;20826;-88
2022/10/19 09:56:22;;;;;;;0.93;0.80;;;15.00;99.90;;;;;;5017985;28;20823;-88
2022/10/19 09:58:50;;;;;;;2.90;1.20;;;14.90;99.90;;;;;;5016970;28;20444;-87
2022/10/19 10:01:31;;;;;;;4.70;1.53;;;14.90;99.90;;;;;;5017012;28;20491;-87
2022/10/19 10:04:08;;;;;;;9.60;2.23;;;14.90;99.90;;;;;;5018146;28;20456;-88
2022/10/19 10:06:39;;;;;;;1.27;1.00;;;14.90;99.90;;;;;;5016670;28;20491;-88
2022/10/19 10:09:06;;;;;;;1.80;1.10;;;14.80;99.90;;;;;;5020700;28;20422;-88
2022/10/19 10:11:36;;;;;;;2.27;1.30;;;14.80;99.90;;;;;;5017556;28;20466;-87
2022/10/19 10:14:11;;;;;;;2.37;1.40;;;14.80;99.90;;;;;;5017607;28;20437;-89
2022/10/19 10:16:38;;;;;;;3.13;1.23;;;14.90;99.90;;;;;;5017118;28;20455;-87
2022/10/19 10:19:07;;;;;;;2.50;1.57;;;14.90;99.90;;;;;;5016943;28;20452;-87
2022/10/19 10:21:48;;;;;;;4.20;1.37;;;14.90;99.90;;;;;;5015967;28;20468;-88
2022/10/19 10:24:20;;;;;;;1.27;1.17;;;15.00;99.90;;;;;;5017657;28;20790;-87
2022/10/19 10:26:48;;;;;;;3.40;1.73;;;15.00;99.90;;;;;;5016795;28;20491;-88
2022/10/19 10:29:21;;;;;;;7.03;3.03;;;14.90;99.90;;;;;;5016674;28;20553;-87
2022/10/19 10:31:51;;;;;;;4.40;2.07;;;14.90;99.90;;;;;;5016563;28;20468;-87
2022/10/19 10:34:32;;;;;;;3.23;2.17;;;14.90;99.90;;;;;;5017404;28;20440;-88
2022/10/19 10:37:01;;;;;;;6.17;2.10;;;15.00;99.90;;;;;;5017528;28;20436;-87
2022/10/19 10:39:29;;;;;;;2.90;2.70;;;15.00;99.90;;;;;;5017710;28;20942;-88
2022/10/19 10:42:02;;;;;;;3.07;1.83;;;15.00;99.90;;;;;;5016901;28;20476;-88
2022/10/19 10:44:29;;;;;;;4.30;1.43;;;14.90;99.90;;;;;;5016595;28;20443;-88
2022/10/19 10:46:58;;;;;;;3.60;2.20;;;14.90;99.90;;;;;;5016576;28;20483;-88
2022/10/19 10:49:28;;;;;;;2.50;1.30;;;14.90;99.90;;;;;;5015861;28;20437;-87
2022/10/19 10:51:56;;;;;;;1.70;1.60;;;14.90;99.90;;;;;;5016151;28;20470;-88
2022/10/19 10:54:29;;;;;;;2.00;0.90;;;14.90;99.90;;;;;;5016426;28;20946;-89
2022/10/19 10:57:11;;;;;;;2.40;1.20;;;14.90;99.90;;;;;;5016151;28;20469;-89
2022/10/19 10:59:49;;;;;;;3.50;1.23;;;14.80;99.90;;;;;;5016308;28;20511;-89
2022/10/19 11:02:28;;;;;;;2.30;1.40;;;14.80;99.90;;;;;;5015784;28;20468;-88
2022/10/19 11:04:59;;;;;;;1.67;1.40;;;14.80;99.90;;;;;;5015380;28;20971;-87
2022/10/19 11:07:29;;;;;;;2.47;1.30;;;14.70;99.90;;;;;;5016128;28;20479;-87
2022/10/19 11:10:01;;;;;;;1.00;0.90;;;14.80;99.90;;;;;;5015553;28;20465;-88
2022/10/19 11:12:38;;;;;;;0.90;0.57;;;14.80;99.90;;;;;;5015444;28;20457;-86
2022/10/19 11:15:16;;;;;;;1.17;1.07;;;14.90;99.90;;;;;;5016177;28;20436;-87
2022/10/19 11:17:53;;;;;;;3.23;1.27;;;15.00;99.90;;;;;;5015873;28;20425;-88
2022/10/19 11:20:23;;;;;;;1.50;0.67;;;15.00;99.90;;;;;;5015820;28;20464;-86
2022/10/19 11:22:57;;;;;;;0.93;0.53;;;15.00;99.90;;;;;;5015559;28;20440;-88
2022/10/19 11:25:35;;;;;;;0.70;0.70;;;15.00;99.90;;;;;;5016038;28;20447;-87
2022/10/19 11:28:19;;;;;;;4.00;1.90;;;15.00;99.90;;;;;;5015234;28;21001;-89
2022/10/19 11:30:54;;;;;;;2.37;0.80;;;15.10;99.90;;;;;;5015824;28;20484;-89
2022/10/19 11:33:36;;;;;;;2.30;0.97;;;15.20;99.90;;;;;;5016150;28;20419;-88
2022/10/19 11:36:11;;;;;;;1.00;0.63;;;15.40;99.90;;;;;;5016789;28;20444;-88
2022/10/19 11:38:48;;;;;;;1.13;0.80;;;15.50;99.90;;;;;;5017174;28;20439;-91
2022/10/19 11:41:29;;;;;;;1.33;0.70;;;15.50;99.90;;;;;;5017023;28;20468;-89
2022/10/19 11:44:22;;;;;;;0.93;0.40;;;15.50;99.90;;;;;;5016370;28;20437;-88
2022/10/19 11:47:00;;;;;;;0.90;0.53;;;15.50;99.90;;;;;;5016313;28;20571;-89
2022/10/19 11:49:41;;;;;;;0.93;0.50;;;15.50;99.90;;;;;;5016817;28;20436;-89
2022/10/19 11:52:13;;;;;;;2.47;0.80;;;15.60;99.90;;;;;;5015107;28;20408;-87
2022/10/19 11:54:53;;;;;;;1.37;0.60;;;15.60;99.90;;;;;;5019220;28;20439;-89
2022/10/19 11:57:25;;;;;;;9.57;2.77;;;15.70;99.90;;;;;;5017014;28;20437;-88
2022/10/19 12:00:03;;;;;;;4.00;2.30;;;15.80;99.90;;;;;;5015630;28;20486;-87
2022/10/19 12:02:51;;;;;;;24.77;10.00;;;16.00;99.90;;;;;;5014560;28;20483;-88
2022/10/19 12:05:23;;;;;;;18.93;6.60;;;16.10;99.90;;;;;;5014936;28;20463;-88
2022/10/19 12:08:06;;;;;;;0.60;0.60;;;16.10;99.90;;;;;;5015397;28;20469;-88
2022/10/19 12:10:40;;;;;;;0.50;0.50;;;16.10;99.90;;;;;;5015663;28;20491;-90
2022/10/19 12:13:15;;;;;;;1.13;1.13;;;16.00;99.90;;;;;;5016389;28;20413;-89
2022/10/19 12:15:44;;;;;;;0.60;0.40;;;16.00;99.90;;;;;;5015503;28;20812;-88
2022/10/19 12:18:16;;;;;;;1.57;0.90;;;15.90;99.90;;;;;;5014847;28;20440;-89
2022/10/19 12:20:47;;;;;;;4.33;2.43;;;15.80;99.90;;;;;;5015401;28;20480;-88
2022/10/19 12:23:24;;;;;;;6.23;1.77;;;15.90;99.90;;;;;;5014701;28;20441;-89
2022/10/19 12:25:53;;;;;;;1.70;1.30;;;15.90;99.90;;;;;;5015356;28;20933;-89
2022/10/19 12:28:26;;;;;;;0.63;0.63;;;16.00;99.90;;;;;;5015030;28;20928;-88
2022/10/19 12:30:54;;;;;;;0.90;0.90;;;15.90;99.90;;;;;;5014631;28;20456;-88
2022/10/19 12:33:28;;;;;;;2.20;1.03;;;15.90;99.90;;;;;;5014136;28;20943;-88
2022/10/19 12:36:12;;;;;;;3.27;1.70;;;16.00;99.90;;;;;;5014433;28;20811;-87
2022/10/19 12:38:48;;;;;;;1.50;0.83;;;16.00;99.90;;;;;;5014877;28;20515;-89
2022/10/19 12:41:24;;;;;;;2.73;1.27;;;16.00;99.90;;;;;;5015841;28;20459;-87
2022/10/19 12:44:05;;;;;;;0.90;0.60;;;16.00;99.90;;;;;;5015575;28;20437;-88
2022/10/19 12:46:37;;;;;;;2.10;0.87;;;16.00;99.90;;;;;;5014946;28;20432;-88
2022/10/19 12:49:37;;;;;;;1.57;1.30;;;16.00;99.90;;;;;;5014965;28;20413;-87
2022/10/19 12:52:06;;;;;;;8.60;4.27;;;16.00;99.90;;;;;;5015333;28;20923;-88
2022/10/19 12:54:36;;;;;;;1.40;1.30;;;15.90;99.90;;;;;;5016834;28;20456;-90
2022/10/19 12:57:04;;;;;;;6.90;4.00;;;16.00;99.90;;;;;;5015339;28;20904;-88
2022/10/19 12:59:34;;;;;;;15.27;6.60;;;16.00;99.90;;;;;;5015046;28;20454;-88
2022/10/19 13:02:04;;;;;;;7.77;4.20;;;16.10;99.90;;;;;;5014532;28;20481;-89